createdAt,value
2017-09-26T00:01:23.641Z,15.47
2017-09-26T00:03:51.140Z,15.70
2017-09-26T00:06:18.632Z,16.40
2017-09-26T00:08:46.164Z,15.77
2017-09-26T00:11:14.582Z,18.40
2017-09-26T00:13:42.135Z,17.93
2017-09-26T00:16:09.648Z,20.17
2017-09-26T00:18:37.160Z,25.27
2017-09-26T00:21:04.975Z,29.50
2017-09-26T00:23:32.476Z,28.00
2017-09-26T00:26:00.005Z,29.30
2017-09-26T00:28:27.512Z,27.53
2017-09-26T00:30:55.457Z,29.37
2017-09-26T00:33:22.990Z,18.93
2017-09-26T00:35:50.933Z,17.47
2017-09-26T00:38:19.141Z,17.90
2017-09-26T00:40:46.645Z,20.00
2017-09-26T00:43:14.237Z,20.10
2017-09-26T00:45:42.503Z,23.07
2017-09-26T00:48:10.431Z,21.97
2017-09-26T00:50:37.967Z,23.10
2017-09-26T00:53:05.512Z,23.87
2017-09-26T00:55:33.016Z,24.67
2017-09-26T00:58:00.537Z,23.67
2017-09-26T01:00:38.820Z,26.80
2017-09-26T01:03:06.351Z,24.83
2017-09-26T01:05:38.378Z,25.83
2017-09-26T01:08:05.928Z,27.10
2017-09-26T01:10:34.234Z,26.30
2017-09-26T01:13:01.737Z,29.43
2017-09-26T01:15:29.314Z,29.50
2017-09-26T01:17:57.624Z,29.50
2017-09-26T01:20:25.500Z,28.60
2017-09-26T01:22:52.996Z,31.50
2017-09-26T01:25:20.532Z,31.07
2017-09-26T01:27:48.049Z,29.63
2017-09-26T01:30:15.572Z,31.20
2017-09-26T01:32:43.065Z,27.43
2017-09-26T01:35:11.381Z,27.70
2017-09-26T01:37:39.636Z,25.77
2017-09-26T01:40:07.548Z,25.00
2017-09-26T01:42:35.088Z,23.20
2017-09-26T01:45:02.832Z,24.87
2017-09-26T01:47:30.765Z,26.23
2017-09-26T01:49:58.273Z,26.30
2017-09-26T01:52:25.832Z,28.00
2017-09-26T01:54:54.204Z,27.87
2017-09-26T01:57:25.288Z,28.10
2017-09-26T01:59:54.486Z,28.17
2017-09-26T02:02:22.027Z,32.70
2017-09-26T02:04:49.531Z,28.87
2017-09-26T02:07:17.858Z,30.47
2017-09-26T02:09:45.421Z,28.40
2017-09-26T02:12:13.154Z,29.93
2017-09-26T02:14:40.670Z,26.93
2017-09-26T02:17:08.193Z,25.30
2017-09-26T02:19:35.701Z,30.77
2017-09-26T02:22:04.322Z,30.57
2017-09-26T02:24:31.848Z,27.97
2017-09-26T02:27:00.173Z,31.67
2017-09-26T02:29:27.704Z,30.90
2017-09-26T02:31:55.252Z,30.33
2017-09-26T02:34:23.553Z,33.43
2017-09-26T02:36:51.051Z,39.17
2017-09-26T02:39:18.576Z,47.87
2017-09-26T02:41:46.213Z,41.80
2017-09-26T02:44:14.555Z,34.77
2017-09-26T02:46:42.052Z,41.20
2017-09-26T02:49:09.596Z,58.40
2017-09-26T02:51:37.855Z,46.47
2017-09-26T02:54:06.164Z,40.50
2017-09-26T02:56:34.063Z,40.60
2017-09-26T02:59:02.336Z,41.60
2017-09-26T03:01:29.873Z,37.37
2017-09-26T03:03:57.443Z,37.70
2017-09-26T03:06:24.932Z,36.80
2017-09-26T03:08:52.944Z,34.27
2017-09-26T03:11:20.507Z,23.53
2017-09-26T03:13:48.412Z,24.83
2017-09-26T03:16:15.940Z,22.03
2017-09-26T03:18:43.427Z,24.30
2017-09-26T03:21:10.970Z,27.43
2017-09-26T03:23:38.475Z,27.20
2017-09-26T03:26:06.414Z,29.20
2017-09-26T03:28:34.728Z,29.67
2017-09-26T03:31:03.009Z,31.27
2017-09-26T03:33:30.715Z,29.17
2017-09-26T03:35:58.208Z,30.17
2017-09-26T03:38:25.713Z,30.20
2017-09-26T03:40:53.237Z,29.50
2017-09-26T03:43:20.756Z,30.07
2017-09-26T03:45:48.257Z,30.87
2017-09-26T03:48:17.364Z,28.90
2017-09-26T03:50:44.865Z,25.77
2017-09-26T03:53:12.381Z,29.10
2017-09-26T03:55:40.330Z,28.67
2017-09-26T03:58:08.271Z,28.33
2017-09-26T04:00:35.760Z,29.57
2017-09-26T04:03:03.679Z,30.83
2017-09-26T04:05:31.240Z,30.07
2017-09-26T04:07:58.784Z,32.30
2017-09-26T04:10:26.271Z,33.40
2017-09-26T04:12:53.793Z,33.57
2017-09-26T04:15:21.369Z,32.23
2017-09-26T04:17:48.877Z,32.17
2017-09-26T04:20:16.756Z,44.67
2017-09-26T04:22:44.308Z,35.07
2017-09-26T04:25:11.844Z,30.57
2017-09-26T04:27:39.384Z,28.17
2017-09-26T04:30:07.319Z,26.30
2017-09-26T04:32:34.815Z,25.43
2017-09-26T04:35:02.351Z,27.60
2017-09-26T04:37:30.091Z,26.80
2017-09-26T04:39:58.561Z,26.10
2017-09-26T04:42:26.089Z,26.00
2017-09-26T04:44:54.353Z,28.00
2017-09-26T04:47:21.903Z,28.97
2017-09-26T04:49:49.396Z,31.03
2017-09-26T04:52:17.796Z,28.93
2017-09-26T04:54:45.328Z,29.83
2017-09-26T04:57:12.820Z,34.37
2017-09-26T04:59:41.172Z,33.00
2017-09-26T05:02:09.112Z,29.73
2017-09-26T05:04:36.628Z,32.10
2017-09-26T05:07:04.540Z,30.63
2017-09-26T05:09:32.098Z,30.87
2017-09-26T05:11:59.600Z,29.33
2017-09-26T05:14:27.215Z,30.70
2017-09-26T05:16:54.720Z,31.00
2017-09-26T05:19:22.365Z,33.00
2017-09-26T05:21:49.917Z,31.77
2017-09-26T05:24:17.412Z,37.40
2017-09-26T05:26:45.679Z,36.90
2017-09-26T05:29:13.984Z,35.17
2017-09-26T05:31:41.490Z,35.07
2017-09-26T05:34:09.036Z,33.20
2017-09-26T05:36:36.778Z,37.63
2017-09-26T05:39:04.389Z,35.23
2017-09-26T05:41:32.227Z,24.30
2017-09-26T05:43:59.818Z,23.20
2017-09-26T05:46:27.766Z,23.50
2017-09-26T05:48:55.665Z,24.10
2017-09-26T05:51:23.623Z,25.47
2017-09-26T05:53:51.912Z,25.40
2017-09-26T05:56:19.496Z,27.23
2017-09-26T05:58:47.061Z,28.33
2017-09-26T06:01:14.955Z,28.40
2017-09-26T06:03:43.244Z,28.80
2017-09-26T06:06:10.754Z,26.50
2017-09-26T06:08:38.696Z,27.50
2017-09-26T06:11:06.985Z,26.50
2017-09-26T06:13:34.535Z,29.00
2017-09-26T06:16:03.215Z,30.13
2017-09-26T06:18:31.501Z,26.50
2017-09-26T06:20:59.449Z,26.73
2017-09-26T06:23:26.980Z,25.13
2017-09-26T06:25:54.528Z,25.00
2017-09-26T06:28:22.154Z,24.50
2017-09-26T06:30:49.689Z,24.63
2017-09-26T06:33:17.657Z,24.83
2017-09-26T06:35:45.185Z,25.93
2017-09-26T06:38:12.797Z,23.37
2017-09-26T06:40:40.443Z,24.50
2017-09-26T06:43:08.415Z,25.50
2017-09-26T06:45:35.979Z,25.40
2017-09-26T06:48:04.324Z,26.93
2017-09-26T06:50:31.869Z,26.40
2017-09-26T06:52:59.433Z,26.43
2017-09-26T06:55:27.757Z,27.00
2017-09-26T06:57:55.300Z,26.70
2017-09-26T07:00:22.802Z,25.80
2017-09-26T07:02:50.465Z,27.87
2017-09-26T07:05:18.013Z,27.50
2017-09-26T07:07:45.570Z,25.60
2017-09-26T07:10:13.972Z,27.17
2017-09-26T07:12:42.295Z,25.67
2017-09-26T07:15:10.096Z,25.07
2017-09-26T07:17:37.841Z,25.10
2017-09-26T07:20:06.770Z,25.30
2017-09-26T07:22:34.325Z,24.60
2017-09-26T07:25:01.840Z,22.80
2017-09-26T07:27:29.376Z,25.70
2017-09-26T07:29:56.903Z,23.07
2017-09-26T07:32:24.452Z,23.87
2017-09-26T07:34:51.972Z,24.33
2017-09-26T07:37:19.480Z,25.60
2017-09-26T07:39:47.038Z,23.47
2017-09-26T07:42:14.544Z,22.13
2017-09-26T07:44:42.842Z,23.47
2017-09-26T07:47:10.400Z,22.87
2017-09-26T07:49:38.301Z,23.33
2017-09-26T07:52:06.250Z,24.20
2017-09-26T07:54:33.812Z,26.10
2017-09-26T07:57:01.335Z,24.23
2017-09-26T07:59:29.667Z,26.30
2017-09-26T08:01:57.573Z,24.80
2017-09-26T08:04:25.436Z,23.63
2017-09-26T08:06:53.737Z,25.07
2017-09-26T08:09:21.582Z,24.07
2017-09-26T08:11:49.703Z,23.50
2017-09-26T08:14:17.228Z,25.90
2017-09-26T08:16:44.735Z,23.83
2017-09-26T08:19:13.041Z,27.17
2017-09-26T08:21:41.460Z,24.70
2017-09-26T08:24:08.963Z,23.90
2017-09-26T08:26:36.868Z,26.70
2017-09-26T08:29:04.804Z,23.73
2017-09-26T08:31:32.739Z,22.43
2017-09-26T08:34:00.659Z,24.20
2017-09-26T08:36:28.167Z,25.20
2017-09-26T08:38:56.141Z,23.53
2017-09-26T08:41:23.666Z,21.40
2017-09-26T08:43:51.164Z,23.13
2017-09-26T08:46:18.701Z,22.57
2017-09-26T08:48:46.964Z,21.57
2017-09-26T08:51:14.891Z,21.93
2017-09-26T08:53:42.785Z,24.43
2017-09-26T08:56:11.096Z,23.77
2017-09-26T08:58:38.592Z,24.53
2017-09-26T09:01:06.120Z,22.43
2017-09-26T09:03:34.009Z,26.93
2017-09-26T09:06:02.245Z,25.33
2017-09-26T09:08:29.774Z,25.00
2017-09-26T09:10:58.185Z,26.17
2017-09-26T09:13:26.140Z,26.97
2017-09-26T09:15:53.653Z,27.63
2017-09-26T09:18:21.556Z,28.20
2017-09-26T09:20:49.323Z,27.80
2017-09-26T09:23:17.588Z,29.23
2017-09-26T09:25:45.911Z,30.37
2017-09-26T09:28:13.805Z,28.67
2017-09-26T09:30:41.752Z,28.17
2017-09-26T09:33:09.276Z,28.40
2017-09-26T09:35:36.830Z,28.00
2017-09-26T09:38:05.150Z,29.37
2017-09-26T09:40:33.407Z,27.80
2017-09-26T09:43:01.735Z,28.57
2017-09-26T09:45:30.591Z,28.27
2017-09-26T09:47:58.125Z,29.17
2017-09-26T09:50:26.031Z,28.27
2017-09-26T09:52:53.572Z,28.27
2017-09-26T09:55:21.071Z,27.87
2017-09-26T09:57:49.339Z,27.93
2017-09-26T10:00:16.864Z,28.03
2017-09-26T10:02:44.396Z,26.63
2017-09-26T10:05:12.067Z,27.43
2017-09-26T10:07:40.594Z,26.97
2017-09-26T10:10:08.243Z,29.10
2017-09-26T10:12:36.564Z,26.87
2017-09-26T10:15:04.508Z,24.30
2017-09-26T10:17:32.028Z,28.50
2017-09-26T10:19:59.972Z,27.10
2017-09-26T10:22:27.633Z,28.87
2017-09-26T10:24:55.178Z,29.40
2017-09-26T10:27:23.496Z,28.10
2017-09-26T10:29:51.106Z,28.47
2017-09-26T10:32:18.618Z,28.80
2017-09-26T10:34:46.159Z,28.40
2017-09-26T10:37:13.666Z,26.13
2017-09-26T10:39:41.176Z,23.93
2017-09-26T10:42:08.711Z,22.07
2017-09-26T10:44:36.632Z,25.07
2017-09-26T10:47:04.584Z,23.50
2017-09-26T10:49:32.115Z,28.30
2017-09-26T10:52:00.217Z,28.10
2017-09-26T10:54:28.267Z,28.23
2017-09-26T10:56:56.579Z,28.37
2017-09-26T10:59:24.908Z,28.23
2017-09-26T11:01:52.450Z,27.30
2017-09-26T11:04:20.397Z,27.07
2017-09-26T11:06:47.948Z,23.20
2017-09-26T11:09:15.588Z,25.60
2017-09-26T11:11:43.151Z,24.13
2017-09-26T11:14:10.762Z,25.67
2017-09-26T11:16:39.421Z,23.97
2017-09-26T11:19:07.737Z,22.37
2017-09-26T11:21:36.020Z,22.80
2017-09-26T11:24:04.583Z,24.77
2017-09-26T11:26:32.896Z,23.10
2017-09-26T11:29:01.176Z,24.17
2017-09-26T11:31:28.888Z,25.00
2017-09-26T11:33:57.181Z,26.97
2017-09-26T11:36:25.749Z,22.20
2017-09-26T11:38:54.400Z,25.00
2017-09-26T11:41:22.084Z,23.50
2017-09-26T11:43:49.621Z,24.90
2017-09-26T11:46:17.168Z,27.07
2017-09-26T11:48:45.436Z,21.93
2017-09-26T11:51:14.082Z,21.90
2017-09-26T11:53:42.036Z,24.73
2017-09-26T11:56:09.530Z,22.27
2017-09-26T11:58:37.437Z,19.83
2017-09-26T12:01:07.129Z,19.97
2017-09-26T12:03:34.629Z,21.00
2017-09-26T12:06:02.552Z,24.50
2017-09-26T12:08:30.472Z,23.10
2017-09-26T12:10:58.736Z,25.37
2017-09-26T12:13:31.969Z,24.20
2017-09-26T12:15:59.476Z,22.33
2017-09-26T12:18:27.022Z,23.73
2017-09-26T12:20:54.922Z,21.70
2017-09-26T12:23:22.437Z,20.10
2017-09-26T12:25:49.996Z,19.47
2017-09-26T12:28:17.510Z,20.73
2017-09-26T12:30:45.411Z,21.17
2017-09-26T12:33:13.753Z,19.67
2017-09-26T12:35:42.052Z,19.60
2017-09-26T12:38:09.948Z,21.17
2017-09-26T12:40:37.887Z,22.93
2017-09-26T12:43:06.191Z,20.90
2017-09-26T12:45:34.852Z,20.67
2017-09-26T12:48:02.755Z,20.00
2017-09-26T12:50:30.316Z,17.97
2017-09-26T12:52:57.885Z,17.37
2017-09-26T12:55:26.200Z,19.43
2017-09-26T12:57:54.117Z,16.80
2017-09-26T13:00:22.026Z,18.50
2017-09-26T13:02:49.571Z,14.80
2017-09-26T13:05:17.513Z,13.50
2017-09-26T13:07:45.120Z,15.20
2017-09-26T13:10:14.028Z,17.57
2017-09-26T13:12:41.924Z,17.50
2017-09-26T13:15:09.418Z,16.87
2017-09-26T13:17:36.956Z,15.70
2017-09-26T13:20:04.457Z,14.40
2017-09-26T13:22:32.398Z,14.77
2017-09-26T13:25:00.340Z,14.17
2017-09-26T13:27:28.243Z,14.60
2017-09-26T13:29:55.780Z,13.83
2017-09-26T13:32:23.329Z,10.97
2017-09-26T13:34:51.651Z,14.20
2017-09-26T13:37:19.928Z,11.90
2017-09-26T13:39:47.899Z,13.80
2017-09-26T13:42:16.522Z,14.57
2017-09-26T13:44:44.019Z,14.73
2017-09-26T13:47:11.556Z,15.90
2017-09-26T13:49:39.113Z,12.50
2017-09-26T13:52:08.079Z,14.53
2017-09-26T13:54:36.498Z,15.73
2017-09-26T13:57:05.297Z,14.60
2017-09-26T13:59:33.270Z,13.10
2017-09-26T14:02:01.217Z,13.70
2017-09-26T14:04:29.124Z,14.40
2017-09-26T14:06:57.697Z,15.00
2017-09-26T14:09:25.203Z,12.73
2017-09-26T14:11:53.480Z,12.70
2017-09-26T14:14:22.155Z,12.90
2017-09-26T14:16:49.731Z,12.07
2017-09-26T14:19:17.225Z,14.37
2017-09-26T14:21:44.728Z,12.87
2017-09-26T14:24:13.053Z,12.57
2017-09-26T14:26:40.559Z,14.30
2017-09-26T14:29:08.860Z,12.30
2017-09-26T14:31:36.792Z,9.33
2017-09-26T14:34:05.113Z,5.63
2017-09-26T14:36:33.036Z,4.37
2017-09-26T14:39:01.302Z,5.20
2017-09-26T14:41:29.220Z,3.70
2017-09-26T14:43:57.136Z,6.03
2017-09-26T14:46:25.397Z,4.90
2017-09-26T14:48:53.337Z,5.50
2017-09-26T14:51:20.874Z,5.93
2017-09-26T14:53:48.802Z,9.90
2017-09-26T14:56:16.352Z,9.10
2017-09-26T14:58:44.246Z,9.40
2017-09-26T15:01:12.148Z,7.27
2017-09-26T15:03:40.072Z,8.03
2017-09-26T15:06:08.363Z,4.90
2017-09-26T15:08:35.908Z,6.10
2017-09-26T15:11:03.407Z,7.10
2017-09-26T15:13:30.903Z,8.23
2017-09-26T15:15:58.864Z,6.90
2017-09-26T15:18:26.372Z,9.30
2017-09-26T15:20:53.906Z,6.60
2017-09-26T15:23:22.229Z,7.70
2017-09-26T15:25:49.799Z,7.57
2017-09-26T15:28:17.614Z,7.50
2017-09-26T15:30:45.933Z,6.30
2017-09-26T15:33:13.432Z,7.70
2017-09-26T15:35:41.036Z,7.17
2017-09-26T15:38:08.586Z,7.40
2017-09-26T15:40:36.659Z,7.00
2017-09-26T15:43:04.213Z,8.13
2017-09-26T15:45:33.272Z,7.70
2017-09-26T15:48:00.760Z,7.57
2017-09-26T15:50:29.400Z,7.90
2017-09-26T15:52:57.553Z,8.70
2017-09-26T15:55:25.828Z,7.63
2017-09-26T15:57:53.732Z,7.63
2017-09-26T16:00:21.275Z,8.87
2017-09-26T16:02:49.582Z,7.43
2017-09-26T16:05:17.511Z,9.03
2017-09-26T16:07:45.826Z,9.80
2017-09-26T16:10:14.014Z,8.37
2017-09-26T16:12:42.277Z,10.53
2017-09-26T16:15:09.778Z,8.97
2017-09-26T16:17:37.962Z,9.53
2017-09-26T16:20:06.464Z,13.00
2017-09-26T16:22:34.820Z,12.57
2017-09-26T16:25:03.081Z,10.70
2017-09-26T16:27:31.022Z,12.37
2017-09-26T16:29:58.533Z,11.40
2017-09-26T16:32:26.049Z,12.07
2017-09-26T16:34:54.769Z,11.00
2017-09-26T16:37:22.745Z,13.27
2017-09-26T16:39:51.016Z,12.40
2017-09-26T16:42:19.085Z,12.80
2017-09-26T16:44:47.019Z,11.20
2017-09-26T16:47:15.294Z,13.20
2017-09-26T16:49:42.807Z,11.27
2017-09-26T16:52:10.370Z,12.00
2017-09-26T16:54:38.110Z,13.33
2017-09-26T16:57:06.400Z,12.33
2017-09-26T16:59:35.429Z,11.20
2017-09-26T17:02:03.739Z,9.70
2017-09-26T17:04:31.242Z,12.47
2017-09-26T17:06:58.980Z,11.33
2017-09-26T17:09:27.668Z,10.60
2017-09-26T17:11:55.924Z,7.53
2017-09-26T17:14:23.839Z,6.80
2017-09-26T17:16:51.757Z,6.73
2017-09-26T17:19:19.661Z,8.47
2017-09-26T17:21:48.372Z,10.13
2017-09-26T17:24:16.268Z,11.00
2017-09-26T17:26:44.536Z,9.90
2017-09-26T17:29:12.100Z,10.73
2017-09-26T17:31:40.747Z,10.70
2017-09-26T17:34:08.682Z,13.97
2017-09-26T17:36:36.211Z,13.47
2017-09-26T17:39:04.105Z,12.83
2017-09-26T17:41:32.044Z,12.73
2017-09-26T17:43:59.560Z,16.27
2017-09-26T17:46:27.198Z,14.10
2017-09-26T17:48:54.725Z,14.07
2017-09-26T17:51:23.080Z,13.77
2017-09-26T17:53:50.972Z,15.23
2017-09-26T17:56:18.876Z,13.10
2017-09-26T17:58:46.415Z,14.13
2017-09-26T18:01:13.955Z,14.50
2017-09-26T18:03:41.515Z,16.13
2017-09-26T18:06:09.800Z,17.33
2017-09-26T18:08:37.337Z,15.13
2017-09-26T18:11:04.843Z,16.03
2017-09-26T18:13:32.784Z,16.57
2017-09-26T18:16:00.308Z,15.47
2017-09-26T18:18:27.800Z,17.97
2017-09-26T18:20:56.120Z,16.83
2017-09-26T18:23:23.627Z,18.90
2017-09-26T18:25:51.946Z,19.50
2017-09-26T18:28:19.483Z,20.23
2017-09-26T18:30:46.998Z,16.93
2017-09-26T18:33:14.569Z,17.90
2017-09-26T18:35:42.100Z,18.43
2017-09-26T18:38:09.638Z,16.13
2017-09-26T18:40:37.180Z,17.87
2017-09-26T18:43:04.752Z,17.23
2017-09-26T18:45:32.316Z,16.70
2017-09-26T18:47:59.824Z,19.27
2017-09-26T18:50:28.116Z,17.87
2017-09-26T18:52:56.446Z,18.23
2017-09-26T18:55:24.192Z,17.30
2017-09-26T18:57:52.162Z,17.70
2017-09-26T19:00:19.707Z,18.43
2017-09-26T19:02:47.228Z,14.97
2017-09-26T19:05:14.737Z,16.70
2017-09-26T19:07:42.284Z,17.83
2017-09-26T19:10:09.794Z,15.13
2017-09-26T19:12:37.314Z,15.00
2017-09-26T19:15:04.864Z,14.67
2017-09-26T19:17:32.400Z,13.27
2017-09-26T19:19:59.901Z,13.73
2017-09-26T19:22:28.219Z,13.70
2017-09-26T19:24:56.152Z,13.10
2017-09-26T19:27:23.717Z,13.83
2017-09-26T19:29:51.253Z,13.87
2017-09-26T19:32:19.188Z,14.97
2017-09-26T19:34:47.443Z,13.33
2017-09-26T19:37:14.944Z,10.87
2017-09-26T19:39:42.880Z,10.67
2017-09-26T19:42:10.382Z,9.40
2017-09-26T19:44:37.896Z,10.70
2017-09-26T19:47:05.459Z,10.53
2017-09-26T19:49:33.177Z,9.70
2017-09-26T19:52:00.740Z,11.57
2017-09-26T19:54:29.045Z,11.80
2017-09-26T19:56:56.548Z,10.67
2017-09-26T19:59:24.161Z,11.03
2017-09-26T20:01:51.831Z,11.87
2017-09-26T20:04:19.739Z,11.30
2017-09-26T20:06:47.248Z,11.03
2017-09-26T20:09:15.567Z,12.10
2017-09-26T20:11:43.117Z,11.70
2017-09-26T20:14:11.401Z,11.60
2017-09-26T20:16:38.932Z,11.50
2017-09-26T20:19:06.454Z,14.23
2017-09-26T20:21:33.987Z,12.83
2017-09-26T20:24:01.577Z,13.53
2017-09-26T20:26:29.144Z,14.47
2017-09-26T20:28:56.665Z,16.33
2017-09-26T20:31:24.180Z,15.63
2017-09-26T20:33:51.717Z,17.43
2017-09-26T20:36:19.652Z,16.67
2017-09-26T20:38:47.280Z,20.07
2017-09-26T20:41:15.629Z,18.33
2017-09-26T20:43:43.540Z,19.57
2017-09-26T20:46:11.818Z,19.67
2017-09-26T20:48:40.248Z,19.07
2017-09-26T20:51:07.884Z,20.20
2017-09-26T20:53:35.405Z,18.87
2017-09-26T20:56:02.973Z,18.30
2017-09-26T20:58:32.006Z,16.97
2017-09-26T21:00:59.544Z,17.77
2017-09-26T21:03:27.220Z,18.00
2017-09-26T21:05:54.724Z,17.10
2017-09-26T21:08:22.294Z,16.27
2017-09-26T21:10:50.288Z,16.40
2017-09-26T21:13:17.973Z,19.30
2017-09-26T21:15:45.883Z,18.17
2017-09-26T21:18:13.441Z,15.60
2017-09-26T21:20:40.969Z,16.87
2017-09-26T21:23:08.488Z,15.97
2017-09-26T21:25:36.801Z,15.50
2017-09-26T21:28:04.380Z,14.00
2017-09-26T21:30:31.943Z,14.10
2017-09-26T21:32:59.520Z,11.83
2017-09-26T21:35:27.152Z,12.30
2017-09-26T21:37:54.654Z,11.00
2017-09-26T21:40:22.199Z,9.20
2017-09-26T21:42:49.840Z,9.23
2017-09-26T21:45:17.336Z,7.93
2017-09-26T21:47:45.596Z,8.90
2017-09-26T21:50:13.142Z,9.10
2017-09-26T21:52:40.676Z,8.60
2017-09-26T21:55:08.188Z,8.53
2017-09-26T21:57:35.726Z,8.63
2017-09-26T22:00:03.257Z,6.57
2017-09-26T22:02:30.767Z,7.70
2017-09-26T22:04:59.080Z,7.03
2017-09-26T22:07:26.600Z,8.87
2017-09-26T22:09:54.921Z,8.50
2017-09-26T22:12:23.228Z,7.30
2017-09-26T22:14:50.721Z,7.30
2017-09-26T22:17:19.025Z,6.67
2017-09-26T22:22:20.132Z,5.83
2017-09-26T22:24:47.686Z,6.30
2017-09-26T22:27:15.189Z,6.23
2017-09-26T22:29:42.719Z,4.67
2017-09-26T22:32:10.312Z,4.73
2017-09-26T22:34:37.816Z,5.87
2017-09-26T22:37:05.447Z,5.20
2017-09-26T22:39:33.570Z,4.40
2017-09-26T22:42:01.908Z,4.87
2017-09-26T22:44:29.404Z,4.50
2017-09-26T22:46:57.173Z,4.63
2017-09-26T22:49:25.132Z,4.80
2017-09-26T22:51:52.664Z,4.07
2017-09-26T22:54:20.253Z,5.10
2017-09-26T22:56:48.565Z,4.70
2017-09-26T22:59:16.911Z,4.10
2017-09-26T23:01:44.451Z,3.87
2017-09-26T23:04:11.963Z,5.50
2017-09-26T23:06:39.524Z,4.83
2017-09-26T23:09:07.075Z,4.83
2017-09-26T23:11:34.592Z,5.00
2017-09-26T23:14:02.102Z,4.63
2017-09-26T23:16:29.693Z,5.80
2017-09-26T23:18:57.384Z,4.87
2017-09-26T23:21:25.323Z,5.27
2017-09-26T23:23:52.825Z,5.20
2017-09-26T23:26:20.326Z,4.40
2017-09-26T23:28:48.647Z,4.27
2017-09-26T23:31:16.164Z,4.80
2017-09-26T23:33:44.425Z,5.30
2017-09-26T23:36:12.832Z,5.07
2017-09-26T23:38:41.093Z,4.30
2017-09-26T23:41:09.400Z,4.17
2017-09-26T23:43:37.719Z,4.60
2017-09-26T23:46:05.247Z,4.13
2017-09-26T23:48:32.785Z,5.23
2017-09-26T23:51:00.335Z,4.90
2017-09-26T23:53:27.866Z,5.20
2017-09-26T23:55:55.384Z,6.17
2017-09-26T23:58:22.957Z,5.10
